sensor_id;sensor_type;location;lat;lon;timestamp;temperature;humidity
56869;DHT22;42754;0.000;0.000;2022-08-19T00:00:06;18.90;99.90
56869;DHT22;42754;0.000;0.000;2022-08-19T00:02:34;18.80;99.90
56869;DHT22;42754;0.000;0.000;2022-08-19T00:04:59;18.80;99.90
56869;DHT22;42754;0.000;0.000;2022-08-19T00:07:25;18.80;99.90
56869;DHT22;42754;0.000;0.000;2022-08-19T00:09:50;18.70;99.90
56869;DHT22;42754;0.000;0.000;2022-08-19T00:12:16;18.70;99.90
56869;DHT22;42754;0.000;0.000;2022-08-19T00:14:42;18.70;99.90
56869;DHT22;42754;0.000;0.000;2022-08-19T00:17:09;18.60;99.90
56869;DHT22;42754;0.000;0.000;2022-08-19T00:19:35;18.60;99.90
56869;DHT22;42754;0.000;0.000;2022-08-19T00:22:02;18.60;99.90
56869;DHT22;42754;0.000;0.000;2022-08-19T00:24:28;18.60;99.90
56869;DHT22;42754;0.000;0.000;2022-08-19T00:26:54;18.50;99.90
56869;DHT22;42754;0.000;0.000;2022-08-19T00:29:21;18.60;99.90
56869;DHT22;42754;0.000;0.000;2022-08-19T00:31:47;18.50;99.90
56869;DHT22;42754;0.000;0.000;2022-08-19T00:34:14;18.50;99.90
56869;DHT22;42754;0.000;0.000;2022-08-19T00:36:41;18.40;99.90
56869;DHT22;42754;0.000;0.000;2022-08-19T00:39:07;18.40;99.90
56869;DHT22;42754;0.000;0.000;2022-08-19T00:41:33;18.40;99.90
56869;DHT22;42754;0.000;0.000;2022-08-19T00:44:21;18.40;99.90
56869;DHT22;42754;0.000;0.000;2022-08-19T00:46:49;18.40;99.90
56869;DHT22;42754;0.000;0.000;2022-08-19T00:49:32;18.40;99.90
56869;DHT22;42754;0.000;0.000;2022-08-19T00:52:12;18.50;99.90
56869;DHT22;42754;0.000;0.000;2022-08-19T00:54:39;18.40;99.90
56869;DHT22;42754;0.000;0.000;2022-08-19T00:57:10;18.40;99.90
56869;DHT22;42754;0.000;0.000;2022-08-19T00:59:38;18.40;99.90
56869;DHT22;42754;0.000;0.000;2022-08-19T01:02:05;18.20;99.90
56869;DHT22;42754;0.000;0.000;2022-08-19T01:04:31;18.20;99.90
56869;DHT22;42754;0.000;0.000;2022-08-19T01:06:58;18.30;99.90
56869;DHT22;42754;0.000;0.000;2022-08-19T01:09:24;18.20;99.90
56869;DHT22;42754;0.000;0.000;2022-08-19T01:11:50;18.20;99.90
56869;DHT22;42754;0.000;0.000;2022-08-19T01:14:16;18.20;99.90
56869;DHT22;42754;0.000;0.000;2022-08-19T01:16:43;18.10;99.90
56869;DHT22;42754;0.000;0.000;2022-08-19T01:19:27;18.10;99.90
56869;DHT22;42754;0.000;0.000;2022-08-19T01:22:08;18.10;99.90
56869;DHT22;42754;0.000;0.000;2022-08-19T01:24:36;18.00;99.90
56869;DHT22;42754;0.000;0.000;2022-08-19T01:27:04;17.90;99.90
56869;DHT22;42754;0.000;0.000;2022-08-19T01:29:30;17.90;99.90
56869;DHT22;42754;0.000;0.000;2022-08-19T01:31:55;17.90;99.90
56869;DHT22;42754;0.000;0.000;2022-08-19T01:34:21;17.80;99.90
56869;DHT22;42754;0.000;0.000;2022-08-19T01:36:47;17.80;99.90
56869;DHT22;42754;0.000;0.000;2022-08-19T01:39:18;17.80;99.90
56869;DHT22;42754;0.000;0.000;2022-08-19T01:41:45;17.80;99.90
56869;DHT22;42754;0.000;0.000;2022-08-19T01:44:10;17.70;99.90
56869;DHT22;42754;0.000;0.000;2022-08-19T01:46:37;17.70;99.90
56869;DHT22;42754;0.000;0.000;2022-08-19T01:49:05;17.70;99.90
56869;DHT22;42754;0.000;0.000;2022-08-19T01:51:31;17.70;99.90
56869;DHT22;42754;0.000;0.000;2022-08-19T01:53:57;17.70;99.90
56869;DHT22;42754;0.000;0.000;2022-08-19T01:56:24;17.70;99.90
56869;DHT22;42754;0.000;0.000;2022-08-19T01:58:54;17.80;99.90
56869;DHT22;42754;0.000;0.000;2022-08-19T02:01:20;17.60;99.90
56869;DHT22;42754;0.000;0.000;2022-08-19T02:03:46;17.60;99.90
56869;DHT22;42754;0.000;0.000;2022-08-19T02:06:12;17.60;99.90
56869;DHT22;42754;0.000;0.000;2022-08-19T02:08:38;17.60;99.90
56869;DHT22;42754;0.000;0.000;2022-08-19T02:11:05;17.50;99.90
56869;DHT22;42754;0.000;0.000;2022-08-19T02:13:31;17.50;99.90
56869;DHT22;42754;0.000;0.000;2022-08-19T02:15:57;17.50;99.90
56869;DHT22;42754;0.000;0.000;2022-08-19T02:18:23;17.50;99.90
56869;DHT22;42754;0.000;0.000;2022-08-19T02:20:48;17.50;99.90
56869;DHT22;42754;0.000;0.000;2022-08-19T02:23:16;17.40;99.90
56869;DHT22;42754;0.000;0.000;2022-08-19T02:25:44;17.40;99.90
56869;DHT22;42754;0.000;0.000;2022-08-19T02:28:10;17.40;99.90
56869;DHT22;42754;0.000;0.000;2022-08-19T02:30:37;17.30;99.90
56869;DHT22;42754;0.000;0.000;2022-08-19T02:33:04;17.30;99.90
56869;DHT22;42754;0.000;0.000;2022-08-19T02:35:30;17.30;99.90
56869;DHT22;42754;0.000;0.000;2022-08-19T02:37:56;17.30;99.90
56869;DHT22;42754;0.000;0.000;2022-08-19T02:40:47;17.20;99.90
56869;DHT22;42754;0.000;0.000;2022-08-19T02:43:14;17.20;99.90
56869;DHT22;42754;0.000;0.000;2022-08-19T02:45:41;17.10;99.90
56869;DHT22;42754;0.000;0.000;2022-08-19T02:48:06;17.10;99.90
56869;DHT22;42754;0.000;0.000;2022-08-19T02:50:33;17.10;99.90
56869;DHT22;42754;0.000;0.000;2022-08-19T02:52:58;17.20;99.90
56869;DHT22;42754;0.000;0.000;2022-08-19T02:55:24;17.10;99.90
56869;DHT22;42754;0.000;0.000;2022-08-19T02:57:50;17.20;99.90
56869;DHT22;42754;0.000;0.000;2022-08-19T03:00:16;17.10;99.90
56869;DHT22;42754;0.000;0.000;2022-08-19T03:02:41;17.10;99.90
56869;DHT22;42754;0.000;0.000;2022-08-19T03:05:08;17.10;99.90
56869;DHT22;42754;0.000;0.000;2022-08-19T03:07:36;17.00;99.90
56869;DHT22;42754;0.000;0.000;2022-08-19T03:10:02;17.00;99.90
56869;DHT22;42754;0.000;0.000;2022-08-19T03:12:29;17.00;99.90
56869;DHT22;42754;0.000;0.000;2022-08-19T03:14:54;17.00;99.90
56869;DHT22;42754;0.000;0.000;2022-08-19T03:17:20;16.90;99.90
56869;DHT22;42754;0.000;0.000;2022-08-19T03:19:46;16.90;99.90
56869;DHT22;42754;0.000;0.000;2022-08-19T03:22:11;16.80;99.90
56869;DHT22;42754;0.000;0.000;2022-08-19T03:24:38;16.80;99.90
56869;DHT22;42754;0.000;0.000;2022-08-19T03:27:04;16.80;99.90
56869;DHT22;42754;0.000;0.000;2022-08-19T03:29:31;16.80;99.90
56869;DHT22;42754;0.000;0.000;2022-08-19T03:32:01;16.70;99.90
56869;DHT22;42754;0.000;0.000;2022-08-19T03:34:30;16.70;99.90
56869;DHT22;42754;0.000;0.000;2022-08-19T03:36:58;16.80;99.90
56869;DHT22;42754;0.000;0.000;2022-08-19T03:39:25;16.70;99.90
56869;DHT22;42754;0.000;0.000;2022-08-19T03:41:54;16.70;99.90
56869;DHT22;42754;0.000;0.000;2022-08-19T03:44:22;16.70;99.90
56869;DHT22;42754;0.000;0.000;2022-08-19T03:46:54;16.80;99.90
56869;DHT22;42754;0.000;0.000;2022-08-19T03:49:21;16.90;99.90
56869;DHT22;42754;0.000;0.000;2022-08-19T03:51:48;16.80;99.90
56869;DHT22;42754;0.000;0.000;2022-08-19T03:54:20;16.70;99.90
56869;DHT22;42754;0.000;0.000;2022-08-19T03:56:49;16.60;99.90
56869;DHT22;42754;0.000;0.000;2022-08-19T03:59:22;16.50;99.90
56869;DHT22;42754;0.000;0.000;2022-08-19T04:01:51;16.50;99.90
56869;DHT22;42754;0.000;0.000;2022-08-19T04:04:16;16.50;99.90
56869;DHT22;42754;0.000;0.000;2022-08-19T04:06:43;16.50;99.90
56869;DHT22;42754;0.000;0.000;2022-08-19T04:09:10;16.50;99.90
56869;DHT22;42754;0.000;0.000;2022-08-19T04:11:52;16.50;99.90
56869;DHT22;42754;0.000;0.000;2022-08-19T04:14:23;16.40;99.90
56869;DHT22;42754;0.000;0.000;2022-08-19T04:16:51;16.40;99.90
56869;DHT22;42754;0.000;0.000;2022-08-19T04:19:19;16.30;99.90
56869;DHT22;42754;0.000;0.000;2022-08-19T04:21:47;16.30;99.90
56869;DHT22;42754;0.000;0.000;2022-08-19T04:24:14;16.30;99.90
56869;DHT22;42754;0.000;0.000;2022-08-19T04:26:40;16.30;99.90
56869;DHT22;42754;0.000;0.000;2022-08-19T04:29:19;16.30;99.90
56869;DHT22;42754;0.000;0.000;2022-08-19T04:31:46;16.30;99.90
56869;DHT22;42754;0.000;0.000;2022-08-19T04:34:16;16.30;99.90
56869;DHT22;42754;0.000;0.000;2022-08-19T04:36:43;16.40;99.90
56869;DHT22;42754;0.000;0.000;2022-08-19T04:39:16;16.30;99.90
56869;DHT22;42754;0.000;0.000;2022-08-19T04:41:43;16.20;99.90
56869;DHT22;42754;0.000;0.000;2022-08-19T04:44:27;16.20;99.90
56869;DHT22;42754;0.000;0.000;2022-08-19T04:46:56;16.20;99.90
56869;DHT22;42754;0.000;0.000;2022-08-19T04:49:22;16.20;99.90
56869;DHT22;42754;0.000;0.000;2022-08-19T04:51:49;16.30;99.90
56869;DHT22;42754;0.000;0.000;2022-08-19T04:54:18;16.40;99.90
56869;DHT22;42754;0.000;0.000;2022-08-19T04:56:49;16.30;99.90
56869;DHT22;42754;0.000;0.000;2022-08-19T04:59:16;16.30;99.90
56869;DHT22;42754;0.000;0.000;2022-08-19T05:01:42;16.20;99.90
56869;DHT22;42754;0.000;0.000;2022-08-19T05:04:08;16.10;99.90
56869;DHT22;42754;0.000;0.000;2022-08-19T05:06:35;16.10;99.90
56869;DHT22;42754;0.000;0.000;2022-08-19T05:09:03;16.30;99.90
56869;DHT22;42754;0.000;0.000;2022-08-19T05:11:33;16.40;99.90
56869;DHT22;42754;0.000;0.000;2022-08-19T05:14:00;16.40;99.90
56869;DHT22;42754;0.000;0.000;2022-08-19T05:16:27;16.30;99.90
56869;DHT22;42754;0.000;0.000;2022-08-19T05:18:54;16.20;99.90
56869;DHT22;42754;0.000;0.000;2022-08-19T05:21:40;16.20;99.90
56869;DHT22;42754;0.000;0.000;2022-08-19T05:24:25;16.40;99.90
56869;DHT22;42754;0.000;0.000;2022-08-19T05:26:53;16.50;99.90
56869;DHT22;42754;0.000;0.000;2022-08-19T05:29:22;16.50;99.90
56869;DHT22;42754;0.000;0.000;2022-08-19T05:31:49;16.60;99.90
56869;DHT22;42754;0.000;0.000;2022-08-19T05:34:16;16.70;99.90
56869;DHT22;42754;0.000;0.000;2022-08-19T05:36:43;16.60;99.90
56869;DHT22;42754;0.000;0.000;2022-08-19T05:39:13;16.60;99.90
56869;DHT22;42754;0.000;0.000;2022-08-19T05:41:48;16.60;99.90
56869;DHT22;42754;0.000;0.000;2022-08-19T05:44:15;16.70;99.90
56869;DHT22;42754;0.000;0.000;2022-08-19T05:46:43;16.90;99.90
56869;DHT22;42754;0.000;0.000;2022-08-19T05:49:13;17.20;99.90
56869;DHT22;42754;0.000;0.000;2022-08-19T05:51:39;17.70;99.90
56869;DHT22;42754;0.000;0.000;2022-08-19T05:54:05;18.10;99.90
56869;DHT22;42754;0.000;0.000;2022-08-19T05:56:31;18.40;99.90
56869;DHT22;42754;0.000;0.000;2022-08-19T05:58:57;18.50;99.90
56869;DHT22;42754;0.000;0.000;2022-08-19T06:01:25;18.80;99.90
56869;DHT22;42754;0.000;0.000;2022-08-19T06:03:51;19.00;99.90
56869;DHT22;42754;0.000;0.000;2022-08-19T06:06:18;19.20;99.90
56869;DHT22;42754;0.000;0.000;2022-08-19T06:08:44;19.20;99.90
56869;DHT22;42754;0.000;0.000;2022-08-19T06:11:23;19.30;99.90
56869;DHT22;42754;0.000;0.000;2022-08-19T06:13:52;19.60;99.90
56869;DHT22;42754;0.000;0.000;2022-08-19T06:16:22;19.80;99.90
56869;DHT22;42754;0.000;0.000;2022-08-19T06:18:58;20.10;99.90
56869;DHT22;42754;0.000;0.000;2022-08-19T06:21:26;20.50;99.90
56869;DHT22;42754;0.000;0.000;2022-08-19T06:23:53;20.70;99.90
56869;DHT22;42754;0.000;0.000;2022-08-19T06:26:19;20.90;99.90
56869;DHT22;42754;0.000;0.000;2022-08-19T06:28:46;21.10;99.90
56869;DHT22;42754;0.000;0.000;2022-08-19T06:31:15;21.20;99.90
56869;DHT22;42754;0.000;0.000;2022-08-19T06:33:43;21.70;99.90
56869;DHT22;42754;0.000;0.000;2022-08-19T06:36:21;22.50;99.90
56869;DHT22;42754;0.000;0.000;2022-08-19T06:38:47;23.00;99.90
56869;DHT22;42754;0.000;0.000;2022-08-19T06:41:12;23.10;99.90
56869;DHT22;42754;0.000;0.000;2022-08-19T06:43:38;23.30;99.90
56869;DHT22;42754;0.000;0.000;2022-08-19T06:46:10;23.40;99.90
56869;DHT22;42754;0.000;0.000;2022-08-19T06:48:36;23.40;99.90
56869;DHT22;42754;0.000;0.000;2022-08-19T06:51:02;23.30;99.90
56869;DHT22;42754;0.000;0.000;2022-08-19T06:53:31;23.10;99.90
56869;DHT22;42754;0.000;0.000;2022-08-19T06:55:56;22.70;99.90
56869;DHT22;42754;0.000;0.000;2022-08-19T06:58:26;22.70;99.90
56869;DHT22;42754;0.000;0.000;2022-08-19T07:00:51;22.70;99.90
56869;DHT22;42754;0.000;0.000;2022-08-19T07:03:17;22.60;99.90
56869;DHT22;42754;0.000;0.000;2022-08-19T07:05:43;22.60;99.90
56869;DHT22;42754;0.000;0.000;2022-08-19T07:08:08;22.60;99.90
56869;DHT22;42754;0.000;0.000;2022-08-19T07:10:35;22.90;99.90
56869;DHT22;42754;0.000;0.000;2022-08-19T07:13:02;22.90;99.90
56869;DHT22;42754;0.000;0.000;2022-08-19T07:15:29;22.90;99.90
56869;DHT22;42754;0.000;0.000;2022-08-19T07:17:56;23.10;99.90
56869;DHT22;42754;0.000;0.000;2022-08-19T07:20:22;23.10;99.90
56869;DHT22;42754;0.000;0.000;2022-08-19T07:22:48;23.10;99.90
56869;DHT22;42754;0.000;0.000;2022-08-19T07:25:14;23.10;99.90
56869;DHT22;42754;0.000;0.000;2022-08-19T07:27:42;23.10;99.90
56869;DHT22;42754;0.000;0.000;2022-08-19T07:30:10;23.10;99.90
56869;DHT22;42754;0.000;0.000;2022-08-19T07:32:37;22.90;99.90
56869;DHT22;42754;0.000;0.000;2022-08-19T07:35:03;23.00;99.90
56869;DHT22;42754;0.000;0.000;2022-08-19T07:37:30;23.00;99.90
56869;DHT22;42754;0.000;0.000;2022-08-19T07:39:55;23.00;99.90
56869;DHT22;42754;0.000;0.000;2022-08-19T07:42:21;23.10;99.90
56869;DHT22;42754;0.000;0.000;2022-08-19T07:44:46;23.20;99.90
56869;DHT22;42754;0.000;0.000;2022-08-19T07:47:12;23.30;99.90
56869;DHT22;42754;0.000;0.000;2022-08-19T07:49:41;23.10;99.90
56869;DHT22;42754;0.000;0.000;2022-08-19T07:52:08;23.10;99.90
56869;DHT22;42754;0.000;0.000;2022-08-19T07:54:37;23.10;99.90
56869;DHT22;42754;0.000;0.000;2022-08-19T07:57:04;22.90;99.90
56869;DHT22;42754;0.000;0.000;2022-08-19T07:59:30;23.00;99.90
56869;DHT22;42754;0.000;0.000;2022-08-19T08:01:56;23.10;99.90
56869;DHT22;42754;0.000;0.000;2022-08-19T08:04:23;23.10;99.90
56869;DHT22;42754;0.000;0.000;2022-08-19T08:07:08;23.10;99.90
56869;DHT22;42754;0.000;0.000;2022-08-19T08:09:52;23.00;99.90
56869;DHT22;42754;0.000;0.000;2022-08-19T08:12:28;23.20;99.90
56869;DHT22;42754;0.000;0.000;2022-08-19T08:14:58;23.30;99.90
56869;DHT22;42754;0.000;0.000;2022-08-19T08:17:26;23.40;99.90
56869;DHT22;42754;0.000;0.000;2022-08-19T08:19:53;23.60;99.90
56869;DHT22;42754;0.000;0.000;2022-08-19T08:22:21;23.80;99.90
56869;DHT22;42754;0.000;0.000;2022-08-19T08:25:06;23.60;99.90
56869;DHT22;42754;0.000;0.000;2022-08-19T08:27:40;23.80;99.90
56869;DHT22;42754;0.000;0.000;2022-08-19T08:30:12;23.70;99.90
56869;DHT22;42754;0.000;0.000;2022-08-19T08:32:39;23.80;99.90
56869;DHT22;42754;0.000;0.000;2022-08-19T08:35:06;24.00;99.90
56869;DHT22;42754;0.000;0.000;2022-08-19T08:37:32;24.30;99.90
56869;DHT22;42754;0.000;0.000;2022-08-19T08:39:58;24.60;99.90
56869;DHT22;42754;0.000;0.000;2022-08-19T08:42:30;24.90;99.40
56869;DHT22;42754;0.000;0.000;2022-08-19T08:45:14;24.80;99.70
56869;DHT22;42754;0.000;0.000;2022-08-19T08:47:45;25.20;99.70
56869;DHT22;42754;0.000;0.000;2022-08-19T08:50:21;25.60;98.80
56869;DHT22;42754;0.000;0.000;2022-08-19T08:52:53;25.30;97.50
56869;DHT22;42754;0.000;0.000;2022-08-19T08:55:25;25.60;97.60
56869;DHT22;42754;0.000;0.000;2022-08-19T08:57:59;26.20;97.50
56869;DHT22;42754;0.000;0.000;2022-08-19T09:00:29;26.50;96.20
56869;DHT22;42754;0.000;0.000;2022-08-19T09:02:56;27.00;95.80
56869;DHT22;42754;0.000;0.000;2022-08-19T09:05:30;27.40;94.20
56869;DHT22;42754;0.000;0.000;2022-08-19T09:10:53;28.10;92.60
56869;DHT22;42754;0.000;0.000;2022-08-19T09:13:42;28.50;92.90
56869;DHT22;42754;0.000;0.000;2022-08-19T09:16:14;29.10;91.50
56869;DHT22;42754;0.000;0.000;2022-08-19T09:18:47;29.00;91.80
56869;DHT22;42754;0.000;0.000;2022-08-19T09:21:15;29.60;90.30
56869;DHT22;42754;0.000;0.000;2022-08-19T09:23:40;29.50;90.70
56869;DHT22;42754;0.000;0.000;2022-08-19T09:26:10;29.60;90.10
56869;DHT22;42754;0.000;0.000;2022-08-19T09:28:39;29.70;88.50
56869;DHT22;42754;0.000;0.000;2022-08-19T09:31:13;29.50;86.60
56869;DHT22;42754;0.000;0.000;2022-08-19T09:33:39;29.90;84.40
56869;DHT22;42754;0.000;0.000;2022-08-19T09:36:08;29.60;83.70
56869;DHT22;42754;0.000;0.000;2022-08-19T09:38:35;29.60;84.60
56869;DHT22;42754;0.000;0.000;2022-08-19T09:41:06;30.00;83.20
56869;DHT22;42754;0.000;0.000;2022-08-19T09:43:32;30.30;84.20
56869;DHT22;42754;0.000;0.000;2022-08-19T09:46:00;30.80;82.80
56869;DHT22;42754;0.000;0.000;2022-08-19T09:48:26;30.90;82.00
56869;DHT22;42754;0.000;0.000;2022-08-19T09:50:51;30.90;81.40
56869;DHT22;42754;0.000;0.000;2022-08-19T09:53:17;30.60;81.30
56869;DHT22;42754;0.000;0.000;2022-08-19T09:55:43;30.70;85.40
56869;DHT22;42754;0.000;0.000;2022-08-19T09:58:09;31.20;81.00
56869;DHT22;42754;0.000;0.000;2022-08-19T10:00:37;31.40;82.00
56869;DHT22;42754;0.000;0.000;2022-08-19T10:03:03;31.30;81.60
56869;DHT22;42754;0.000;0.000;2022-08-19T10:05:29;30.60;81.40
56869;DHT22;42754;0.000;0.000;2022-08-19T10:08:13;30.90;81.20
56869;DHT22;42754;0.000;0.000;2022-08-19T10:10:40;31.40;82.50
56869;DHT22;42754;0.000;0.000;2022-08-19T10:13:08;31.20;81.50
56869;DHT22;42754;0.000;0.000;2022-08-19T10:15:35;31.00;81.70
56869;DHT22;42754;0.000;0.000;2022-08-19T10:18:01;31.20;80.70
56869;DHT22;42754;0.000;0.000;2022-08-19T10:20:26;31.00;82.80
56869;DHT22;42754;0.000;0.000;2022-08-19T10:22:52;30.70;82.90
56869;DHT22;42754;0.000;0.000;2022-08-19T10:25:17;31.10;83.20
56869;DHT22;42754;0.000;0.000;2022-08-19T10:27:43;31.30;81.70
56869;DHT22;42754;0.000;0.000;2022-08-19T10:30:09;31.10;82.30
56869;DHT22;42754;0.000;0.000;2022-08-19T10:32:35;31.40;82.50
56869;DHT22;42754;0.000;0.000;2022-08-19T10:35:03;30.00;82.60
56869;DHT22;42754;0.000;0.000;2022-08-19T10:37:32;30.00;84.40
56869;DHT22;42754;0.000;0.000;2022-08-19T10:39:58;30.20;83.70
56869;DHT22;42754;0.000;0.000;2022-08-19T10:42:23;30.50;82.20
56869;DHT22;42754;0.000;0.000;2022-08-19T10:44:49;30.60;79.80
56869;DHT22;42754;0.000;0.000;2022-08-19T10:47:15;30.20;81.40
56869;DHT22;42754;0.000;0.000;2022-08-19T10:49:41;30.40;82.10
56869;DHT22;42754;0.000;0.000;2022-08-19T10:52:25;30.80;81.70
56869;DHT22;42754;0.000;0.000;2022-08-19T10:55:05;31.10;80.50
56869;DHT22;42754;0.000;0.000;2022-08-19T10:57:49;30.50;80.70
56869;DHT22;42754;0.000;0.000;2022-08-19T11:00:15;30.40;81.90
56869;DHT22;42754;0.000;0.000;2022-08-19T11:02:41;30.10;82.50
56869;DHT22;42754;0.000;0.000;2022-08-19T11:05:08;30.40;82.20
56869;DHT22;42754;0.000;0.000;2022-08-19T11:07:37;30.70;82.40
56869;DHT22;42754;0.000;0.000;2022-08-19T11:10:04;30.40;83.00
56869;DHT22;42754;0.000;0.000;2022-08-19T11:12:30;30.70;83.70
56869;DHT22;42754;0.000;0.000;2022-08-19T11:14:55;31.00;81.00
56869;DHT22;42754;0.000;0.000;2022-08-19T11:17:21;30.90;80.30
56869;DHT22;42754;0.000;0.000;2022-08-19T11:19:49;30.80;81.80
56869;DHT22;42754;0.000;0.000;2022-08-19T11:22:15;30.60;81.20
56869;DHT22;42754;0.000;0.000;2022-08-19T11:24:41;30.70;80.70
56869;DHT22;42754;0.000;0.000;2022-08-19T11:27:08;30.80;80.40
56869;DHT22;42754;0.000;0.000;2022-08-19T11:29:39;30.70;78.90
56869;DHT22;42754;0.000;0.000;2022-08-19T11:32:07;30.50;80.70
56869;DHT22;42754;0.000;0.000;2022-08-19T11:34:35;31.10;81.30
56869;DHT22;42754;0.000;0.000;2022-08-19T11:37:02;31.20;80.30
56869;DHT22;42754;0.000;0.000;2022-08-19T11:39:30;31.00;81.80
56869;DHT22;42754;0.000;0.000;2022-08-19T11:41:58;30.60;82.30
56869;DHT22;42754;0.000;0.000;2022-08-19T11:44:24;30.70;83.00
56869;DHT22;42754;0.000;0.000;2022-08-19T11:46:49;30.70;81.40
56869;DHT22;42754;0.000;0.000;2022-08-19T11:49:17;30.70;81.30
56869;DHT22;42754;0.000;0.000;2022-08-19T11:51:44;30.30;82.10
56869;DHT22;42754;0.000;0.000;2022-08-19T11:54:11;30.60;82.30
56869;DHT22;42754;0.000;0.000;2022-08-19T11:56:38;30.80;81.20
56869;DHT22;42754;0.000;0.000;2022-08-19T11:59:04;30.70;82.40
56869;DHT22;42754;0.000;0.000;2022-08-19T12:01:29;31.00;82.20
56869;DHT22;42754;0.000;0.000;2022-08-19T12:03:56;30.50;81.70
56869;DHT22;42754;0.000;0.000;2022-08-19T12:06:28;30.60;81.50
56869;DHT22;42754;0.000;0.000;2022-08-19T12:09:00;30.10;81.60
56869;DHT22;42754;0.000;0.000;2022-08-19T12:11:26;30.30;82.00
56869;DHT22;42754;0.000;0.000;2022-08-19T12:13:52;30.40;82.40
56869;DHT22;42754;0.000;0.000;2022-08-19T12:16:24;30.20;82.00
56869;DHT22;42754;0.000;0.000;2022-08-19T12:18:50;30.50;82.40
56869;DHT22;42754;0.000;0.000;2022-08-19T12:21:26;30.60;81.90
56869;DHT22;42754;0.000;0.000;2022-08-19T12:23:54;30.60;82.70
56869;DHT22;42754;0.000;0.000;2022-08-19T12:26:20;30.80;81.70
56869;DHT22;42754;0.000;0.000;2022-08-19T12:28:46;30.80;80.90
56869;DHT22;42754;0.000;0.000;2022-08-19T12:31:14;30.60;80.70
56869;DHT22;42754;0.000;0.000;2022-08-19T12:33:40;30.70;81.60
56869;DHT22;42754;0.000;0.000;2022-08-19T12:36:09;30.90;81.40
56869;DHT22;42754;0.000;0.000;2022-08-19T12:38:36;30.60;81.10
56869;DHT22;42754;0.000;0.000;2022-08-19T12:41:03;30.70;81.20
56869;DHT22;42754;0.000;0.000;2022-08-19T12:43:31;30.70;81.80
56869;DHT22;42754;0.000;0.000;2022-08-19T12:45:57;30.50;80.70
56869;DHT22;42754;0.000;0.000;2022-08-19T12:48:23;30.50;80.30
56869;DHT22;42754;0.000;0.000;2022-08-19T12:50:49;30.70;82.80
56869;DHT22;42754;0.000;0.000;2022-08-19T12:53:15;30.60;80.00
56869;DHT22;42754;0.000;0.000;2022-08-19T12:55:41;30.70;80.90
56869;DHT22;42754;0.000;0.000;2022-08-19T12:58:08;31.00;81.20
56869;DHT22;42754;0.000;0.000;2022-08-19T13:00:34;30.70;80.50
56869;DHT22;42754;0.000;0.000;2022-08-19T13:03:00;30.80;82.10
56869;DHT22;42754;0.000;0.000;2022-08-19T13:05:30;30.40;82.60
56869;DHT22;42754;0.000;0.000;2022-08-19T13:07:57;30.30;81.30
56869;DHT22;42754;0.000;0.000;2022-08-19T13:10:28;30.40;81.40
56869;DHT22;42754;0.000;0.000;2022-08-19T13:12:55;30.80;80.10
56869;DHT22;42754;0.000;0.000;2022-08-19T13:15:22;30.50;80.20
56869;DHT22;42754;0.000;0.000;2022-08-19T13:17:49;29.80;80.90
56869;DHT22;42754;0.000;0.000;2022-08-19T13:20:17;29.10;81.70
56869;DHT22;42754;0.000;0.000;2022-08-19T13:22:44;29.30;81.50
56869;DHT22;42754;0.000;0.000;2022-08-19T13:25:11;29.80;81.00
56869;DHT22;42754;0.000;0.000;2022-08-19T13:27:38;29.50;81.50
56869;DHT22;42754;0.000;0.000;2022-08-19T13:30:06;29.00;82.10
56869;DHT22;42754;0.000;0.000;2022-08-19T13:32:50;28.70;82.70
56869;DHT22;42754;0.000;0.000;2022-08-19T13:35:34;29.10;82.70
56869;DHT22;42754;0.000;0.000;2022-08-19T13:38:00;28.60;84.20
56869;DHT22;42754;0.000;0.000;2022-08-19T13:40:32;29.20;82.90
56869;DHT22;42754;0.000;0.000;2022-08-19T13:43:00;29.40;80.80
56869;DHT22;42754;0.000;0.000;2022-08-19T13:45:27;29.20;82.60
56869;DHT22;42754;0.000;0.000;2022-08-19T13:47:55;29.10;83.40
56869;DHT22;42754;0.000;0.000;2022-08-19T13:50:25;29.10;85.10
56869;DHT22;42754;0.000;0.000;2022-08-19T13:52:53;28.70;84.50
56869;DHT22;42754;0.000;0.000;2022-08-19T13:55:19;28.80;84.20
56869;DHT22;42754;0.000;0.000;2022-08-19T13:57:45;28.50;85.60
56869;DHT22;42754;0.000;0.000;2022-08-19T14:00:16;28.40;85.40
56869;DHT22;42754;0.000;0.000;2022-08-19T14:02:46;28.30;86.50
56869;DHT22;42754;0.000;0.000;2022-08-19T14:05:14;28.40;86.70
56869;DHT22;42754;0.000;0.000;2022-08-19T14:07:40;28.40;86.40
56869;DHT22;42754;0.000;0.000;2022-08-19T14:10:08;28.80;85.10
56869;DHT22;42754;0.000;0.000;2022-08-19T14:12:34;28.40;85.10
56869;DHT22;42754;0.000;0.000;2022-08-19T14:15:00;28.20;85.20
56869;DHT22;42754;0.000;0.000;2022-08-19T14:17:27;27.90;85.30
56869;DHT22;42754;0.000;0.000;2022-08-19T14:19:58;28.00;87.40
56869;DHT22;42754;0.000;0.000;2022-08-19T14:22:25;28.20;84.90
56869;DHT22;42754;0.000;0.000;2022-08-19T14:24:51;28.00;86.10
56869;DHT22;42754;0.000;0.000;2022-08-19T14:27:16;27.90;86.00
56869;DHT22;42754;0.000;0.000;2022-08-19T14:29:42;27.90;86.50
56869;DHT22;42754;0.000;0.000;2022-08-19T14:32:08;27.90;86.50
56869;DHT22;42754;0.000;0.000;2022-08-19T14:34:33;27.80;86.70
56869;DHT22;42754;0.000;0.000;2022-08-19T14:37:02;27.60;87.30
56869;DHT22;42754;0.000;0.000;2022-08-19T14:39:28;27.20;88.60
56869;DHT22;42754;0.000;0.000;2022-08-19T14:41:53;27.00;89.20
56869;DHT22;42754;0.000;0.000;2022-08-19T14:44:19;26.80;90.00
56869;DHT22;42754;0.000;0.000;2022-08-19T14:46:45;26.50;90.60
56869;DHT22;42754;0.000;0.000;2022-08-19T14:49:10;26.30;91.50
56869;DHT22;42754;0.000;0.000;2022-08-19T14:51:36;26.20;92.30
56869;DHT22;42754;0.000;0.000;2022-08-19T14:54:02;26.20;91.70
56869;DHT22;42754;0.000;0.000;2022-08-19T14:56:29;26.10;92.40
56869;DHT22;42754;0.000;0.000;2022-08-19T14:58:55;26.00;92.90
56869;DHT22;42754;0.000;0.000;2022-08-19T15:01:25;26.00;93.00
56869;DHT22;42754;0.000;0.000;2022-08-19T15:03:51;26.00;93.00
56869;DHT22;42754;0.000;0.000;2022-08-19T15:06:19;25.80;93.10
56869;DHT22;42754;0.000;0.000;2022-08-19T15:08:45;25.70;93.40
56869;DHT22;42754;0.000;0.000;2022-08-19T15:11:14;25.90;93.40
56869;DHT22;42754;0.000;0.000;2022-08-19T15:13:41;26.00;93.40
56869;DHT22;42754;0.000;0.000;2022-08-19T15:16:07;26.00;93.50
56869;DHT22;42754;0.000;0.000;2022-08-19T15:18:33;26.10;93.50
56869;DHT22;42754;0.000;0.000;2022-08-19T15:21:01;26.30;93.00
56869;DHT22;42754;0.000;0.000;2022-08-19T15:23:27;25.90;93.50
56869;DHT22;42754;0.000;0.000;2022-08-19T15:25:53;25.60;93.80
56869;DHT22;42754;0.000;0.000;2022-08-19T15:28:21;25.50;94.20
56869;DHT22;42754;0.000;0.000;2022-08-19T15:30:47;25.50;94.70
56869;DHT22;42754;0.000;0.000;2022-08-19T15:33:13;25.40;94.80
56869;DHT22;42754;0.000;0.000;2022-08-19T15:35:46;25.30;95.10
56869;DHT22;42754;0.000;0.000;2022-08-19T15:38:12;25.20;94.90
56869;DHT22;42754;0.000;0.000;2022-08-19T15:40:39;25.00;95.00
56869;DHT22;42754;0.000;0.000;2022-08-19T15:43:06;25.00;95.00
56869;DHT22;42754;0.000;0.000;2022-08-19T15:45:32;24.50;95.40
56869;DHT22;42754;0.000;0.000;2022-08-19T15:47:59;24.30;96.50
56869;DHT22;42754;0.000;0.000;2022-08-19T15:50:25;24.20;97.40
56869;DHT22;42754;0.000;0.000;2022-08-19T15:52:54;24.10;98.20